createdAt,value
2019-03-15T00:01:20.820Z,1.97
2019-03-15T00:03:47.441Z,0.60
2019-03-15T00:06:13.945Z,0.53
2019-03-15T00:08:40.534Z,0.67
2019-03-15T00:11:07.233Z,0.50
2019-03-15T00:13:33.712Z,0.60
2019-03-15T00:16:00.208Z,0.50
2019-03-15T00:18:26.773Z,0.50
2019-03-15T00:20:53.264Z,0.50
2019-03-15T00:23:19.920Z,0.40
2019-03-15T00:25:46.497Z,0.50
2019-03-15T00:28:13.070Z,0.47
2019-03-15T00:30:39.683Z,0.50
2019-03-15T00:33:06.281Z,0.50
2019-03-15T00:35:32.821Z,0.40
2019-03-15T00:37:59.603Z,0.40
2019-03-15T00:40:26.085Z,0.40
2019-03-15T00:42:52.613Z,0.50
2019-03-15T00:45:19.176Z,0.50
2019-03-15T00:47:45.760Z,0.40
2019-03-15T00:50:12.761Z,0.40
2019-03-15T00:52:39.452Z,0.50
2019-03-15T00:55:06.141Z,0.40
2019-03-15T00:57:32.632Z,0.50
2019-03-15T00:59:59.107Z,0.57
2019-03-15T01:02:25.613Z,0.40
2019-03-15T01:04:52.224Z,0.40
2019-03-15T01:07:18.807Z,0.83
2019-03-15T01:09:45.404Z,0.83
2019-03-15T01:12:12.006Z,0.37
2019-03-15T01:14:38.480Z,0.50
2019-03-15T01:17:05.067Z,0.90
2019-03-15T01:19:31.660Z,0.40
2019-03-15T01:21:58.140Z,0.40
2019-03-15T01:24:24.644Z,0.50
2019-03-15T01:26:51.248Z,1.03
2019-03-15T01:29:17.813Z,0.57
2019-03-15T01:31:44.415Z,0.60
2019-03-15T01:34:10.988Z,0.50
2019-03-15T01:36:37.485Z,0.50
2019-03-15T01:39:04.486Z,0.60
2019-03-15T01:41:31.068Z,0.50
2019-03-15T01:43:57.660Z,0.50
2019-03-15T01:46:24.236Z,0.57
2019-03-15T01:48:50.861Z,0.47
2019-03-15T01:51:17.440Z,0.40
2019-03-15T01:53:44.024Z,0.40
2019-03-15T01:56:10.525Z,0.50
2019-03-15T01:58:37.130Z,0.87
2019-03-15T02:01:04.551Z,0.40
2019-03-15T02:03:31.428Z,0.40
2019-03-15T02:05:58.016Z,0.50
2019-03-15T02:08:24.604Z,0.40
2019-03-15T02:10:51.408Z,0.40
2019-03-15T02:13:17.918Z,0.50
2019-03-15T02:15:44.526Z,0.40
2019-03-15T02:18:11.106Z,0.43
2019-03-15T02:20:37.616Z,0.50
2019-03-15T02:23:04.108Z,0.50
2019-03-15T02:25:30.569Z,0.50
2019-03-15T02:27:57.057Z,0.53
2019-03-15T02:30:23.538Z,0.47
2019-03-15T02:32:50.150Z,0.50
2019-03-15T02:35:16.808Z,0.70
2019-03-15T02:37:43.341Z,0.70
2019-03-15T02:40:10.037Z,0.60
2019-03-15T02:42:36.529Z,0.40
2019-03-15T02:45:03.708Z,0.50
2019-03-15T02:47:30.208Z,0.50
2019-03-15T02:49:56.668Z,0.63
2019-03-15T02:52:23.165Z,0.73
2019-03-15T02:54:49.772Z,0.60
2019-03-15T02:57:16.324Z,0.60
2019-03-15T02:59:42.818Z,0.93
2019-03-15T03:02:09.301Z,0.50
2019-03-15T03:04:35.911Z,2.13
2019-03-15T03:07:02.488Z,0.60
2019-03-15T03:09:29.105Z,1.53
2019-03-15T03:11:55.669Z,0.60
2019-03-15T03:14:22.178Z,0.60
2019-03-15T03:16:48.790Z,1.03
2019-03-15T03:19:15.338Z,0.63
2019-03-15T03:21:42.329Z,0.60
2019-03-15T03:24:09.180Z,0.70
2019-03-15T03:26:35.776Z,0.60
2019-03-15T03:29:02.395Z,0.83
2019-03-15T03:31:28.980Z,2.10
2019-03-15T03:33:55.566Z,0.60
2019-03-15T03:36:22.188Z,0.50
2019-03-15T03:38:48.765Z,0.50
2019-03-15T03:41:15.352Z,0.50
2019-03-15T03:43:41.948Z,0.50
2019-03-15T03:46:08.429Z,0.50
2019-03-15T03:48:35.463Z,0.53
2019-03-15T03:51:02.314Z,0.40
2019-03-15T03:53:28.890Z,0.50
2019-03-15T03:55:55.384Z,0.97
2019-03-15T03:58:21.980Z,0.40
2019-03-15T04:00:48.586Z,0.93
2019-03-15T04:03:15.170Z,0.93
2019-03-15T04:05:41.796Z,0.50
2019-03-15T04:08:08.298Z,0.50
2019-03-15T04:10:34.915Z,0.60
2019-03-15T04:13:01.533Z,1.57
2019-03-15T04:15:28.111Z,1.40
2019-03-15T04:17:54.725Z,0.60
2019-03-15T04:20:21.360Z,0.60
2019-03-15T04:22:48.055Z,1.10
2019-03-15T04:25:14.669Z,0.83
2019-03-15T04:27:41.279Z,0.70
2019-03-15T04:30:09.775Z,0.60
2019-03-15T04:32:36.353Z,1.60
2019-03-15T04:35:03.673Z,0.80
2019-03-15T04:37:30.240Z,3.47
2019-03-15T04:39:56.728Z,0.80
2019-03-15T04:42:23.331Z,1.93
2019-03-15T04:44:49.824Z,0.90
2019-03-15T04:47:16.328Z,0.60
2019-03-15T04:49:42.905Z,0.93
2019-03-15T04:52:09.369Z,1.00
2019-03-15T04:54:35.861Z,2.37
2019-03-15T04:57:02.444Z,0.70
2019-03-15T04:59:29.059Z,1.33
2019-03-15T05:01:55.657Z,2.60
2019-03-15T05:04:22.265Z,0.60
2019-03-15T05:06:48.865Z,1.00
2019-03-15T05:09:15.448Z,1.70
2019-03-15T05:11:42.070Z,0.80
2019-03-15T05:14:08.665Z,2.83
2019-03-15T05:16:35.264Z,1.77
2019-03-15T05:19:01.856Z,2.57
2019-03-15T05:21:28.440Z,1.90
2019-03-15T05:23:55.069Z,1.43
2019-03-15T05:26:21.637Z,1.17
2019-03-15T05:28:48.189Z,1.57
2019-03-15T05:31:14.752Z,1.00
2019-03-15T05:33:41.333Z,1.80
2019-03-15T05:36:07.937Z,0.80
2019-03-15T05:38:35.061Z,0.80
2019-03-15T05:41:01.950Z,1.37
2019-03-15T05:43:28.580Z,1.53
2019-03-15T05:45:55.161Z,1.57
2019-03-15T05:48:21.753Z,1.23
2019-03-15T05:50:48.344Z,4.90
2019-03-15T05:53:14.952Z,3.83
2019-03-15T05:55:41.541Z,0.80
2019-03-15T05:58:08.150Z,1.03
2019-03-15T06:00:34.766Z,1.27
2019-03-15T06:03:01.317Z,0.70
2019-03-15T06:05:27.816Z,1.63
2019-03-15T06:07:54.327Z,1.03
2019-03-15T06:10:20.924Z,2.83
2019-03-15T06:12:47.515Z,1.40
2019-03-15T06:15:14.123Z,3.60
2019-03-15T06:17:40.712Z,2.43
2019-03-15T06:20:08.442Z,2.80
2019-03-15T06:22:35.072Z,1.67
2019-03-15T06:25:01.743Z,1.63
2019-03-15T06:27:31.063Z,1.20
2019-03-15T06:29:56.661Z,0.77
2019-03-15T06:32:23.652Z,1.30
2019-03-15T06:34:50.270Z,1.80
2019-03-15T06:37:16.828Z,0.80
2019-03-15T06:39:43.316Z,1.10
2019-03-15T06:42:09.948Z,4.83
2019-03-15T06:44:37.764Z,4.17
2019-03-15T06:47:04.534Z,1.33
2019-03-15T06:49:31.179Z,0.70
2019-03-15T06:51:57.681Z,1.47
2019-03-15T06:54:24.272Z,1.10
2019-03-15T06:56:50.897Z,4.23
2019-03-15T06:59:17.501Z,1.97
2019-03-15T07:01:44.173Z,1.20
2019-03-15T07:04:10.647Z,1.37
2019-03-15T07:06:37.102Z,1.80
2019-03-15T07:09:05.201Z,2.30
2019-03-15T07:11:31.722Z,1.47
2019-03-15T07:13:58.284Z,2.47
2019-03-15T07:16:24.803Z,3.77
2019-03-15T07:18:51.380Z,3.00
2019-03-15T07:21:17.974Z,2.23
2019-03-15T07:23:44.585Z,1.33
2019-03-15T07:26:11.160Z,1.60
2019-03-15T07:28:37.769Z,1.53
2019-03-15T07:31:04.381Z,2.00
2019-03-15T07:33:30.944Z,3.50
2019-03-15T07:35:57.568Z,1.80
2019-03-15T07:38:24.160Z,2.07
2019-03-15T07:40:50.648Z,1.67
2019-03-15T07:43:19.940Z,2.93
2019-03-15T07:45:46.186Z,2.43
2019-03-15T07:48:22.482Z,2.60
2019-03-15T07:50:41.082Z,1.57
2019-03-15T07:53:07.556Z,1.97
2019-03-15T07:55:34.085Z,3.17
2019-03-15T07:58:00.645Z,2.77
2019-03-15T08:00:27.279Z,1.10
2019-03-15T08:02:53.866Z,2.93
2019-03-15T08:05:20.419Z,2.13
2019-03-15T08:07:47.043Z,1.60
2019-03-15T08:10:13.701Z,2.07
2019-03-15T08:12:40.208Z,3.40
2019-03-15T08:15:07.814Z,2.80
2019-03-15T08:17:34.414Z,2.30
2019-03-15T08:20:00.901Z,1.73
2019-03-15T08:22:27.504Z,2.00
2019-03-15T08:24:54.002Z,1.80
2019-03-15T08:27:20.569Z,3.63
2019-03-15T08:29:47.131Z,2.77
2019-03-15T08:32:13.608Z,5.03
2019-03-15T08:34:40.097Z,3.03
2019-03-15T08:37:06.731Z,3.70
2019-03-15T08:39:33.216Z,5.40
2019-03-15T08:41:59.686Z,3.50
2019-03-15T08:44:41.224Z,2.50
2019-03-15T08:47:07.818Z,2.53
2019-03-15T08:49:34.407Z,3.53
2019-03-15T08:52:03.986Z,4.03
2019-03-15T08:54:29.424Z,5.37
2019-03-15T08:56:55.973Z,2.30
2019-03-15T08:59:22.496Z,4.10
2019-03-15T09:01:49.052Z,2.47
2019-03-15T09:04:15.557Z,3.70
2019-03-15T09:06:42.150Z,3.37
2019-03-15T09:09:08.756Z,3.70
2019-03-15T09:11:35.344Z,2.90
2019-03-15T09:14:27.775Z,4.33
2019-03-15T09:16:54.366Z,3.73
2019-03-15T09:19:20.976Z,4.23
2019-03-15T09:21:47.569Z,5.07
2019-03-15T09:24:14.173Z,5.63
2019-03-15T09:26:40.801Z,4.87
2019-03-15T09:29:07.429Z,6.87
2019-03-15T09:31:47.139Z,8.27
2019-03-15T09:34:02.444Z,6.53
2019-03-15T09:36:29.064Z,5.80
2019-03-15T09:38:55.641Z,6.70
2019-03-15T09:41:31.997Z,5.67
2019-03-15T09:43:50.953Z,5.97
2019-03-15T09:46:17.589Z,6.83
2019-03-15T09:48:44.193Z,3.87
2019-03-15T09:51:10.692Z,4.53
2019-03-15T09:53:37.355Z,5.30
2019-03-15T09:56:03.858Z,3.50
2019-03-15T09:58:30.464Z,4.30
2019-03-15T10:00:57.587Z,4.27
2019-03-15T10:03:24.445Z,5.73
2019-03-15T10:05:51.058Z,4.97
2019-03-15T10:08:17.632Z,3.67
2019-03-15T10:10:44.245Z,5.53
2019-03-15T10:13:10.810Z,4.77
2019-03-15T10:15:37.586Z,3.93
2019-03-15T10:18:04.170Z,4.00
2019-03-15T10:20:30.756Z,3.60
2019-03-15T10:23:05.873Z,10.63
2019-03-15T10:25:25.761Z,4.00
2019-03-15T10:27:52.377Z,3.13
2019-03-15T10:30:19.742Z,3.60
2019-03-15T10:32:46.864Z,3.43
2019-03-15T10:35:13.535Z,3.40
2019-03-15T10:37:40.027Z,4.53
2019-03-15T10:40:11.564Z,5.33
2019-03-15T10:42:38.136Z,3.63
2019-03-15T10:45:06.517Z,6.13
2019-03-15T10:47:33.130Z,3.37
2019-03-15T10:49:59.709Z,3.40
2019-03-15T10:52:26.305Z,2.00
2019-03-15T10:54:52.916Z,3.27
2019-03-15T10:57:19.540Z,6.90
2019-03-15T10:59:46.137Z,4.67
2019-03-15T11:02:12.747Z,3.67
2019-03-15T11:04:39.339Z,5.27
2019-03-15T11:07:05.929Z,3.87
2019-03-15T11:09:32.437Z,4.67
2019-03-15T11:11:59.017Z,3.20
2019-03-15T11:14:25.657Z,3.00
2019-03-15T11:16:52.259Z,4.97
2019-03-15T11:19:18.863Z,4.00
2019-03-15T11:21:45.437Z,3.60
2019-03-15T11:24:12.113Z,5.93
2019-03-15T11:26:40.141Z,4.70
2019-03-15T11:29:06.656Z,3.33
2019-03-15T11:31:33.229Z,3.90
2019-03-15T11:33:59.761Z,1.97
2019-03-15T11:36:26.342Z,2.97
2019-03-15T11:38:52.932Z,3.50
2019-03-15T11:41:19.541Z,4.30
2019-03-15T11:43:46.141Z,2.70
2019-03-15T11:46:12.758Z,3.80
2019-03-15T11:48:39.316Z,2.47
2019-03-15T11:51:05.836Z,4.17
2019-03-15T11:53:37.576Z,5.97
2019-03-15T11:56:04.092Z,5.90
2019-03-15T11:58:30.672Z,4.30
2019-03-15T12:00:57.264Z,4.43
2019-03-15T12:03:23.841Z,4.00
2019-03-15T12:05:50.428Z,4.27
2019-03-15T12:08:16.893Z,4.27
2019-03-15T12:10:43.396Z,3.00
2019-03-15T12:13:09.956Z,5.03
2019-03-15T12:15:36.617Z,3.50
2019-03-15T12:18:03.161Z,4.13
2019-03-15T12:20:29.850Z,4.00
2019-03-15T12:22:56.362Z,3.50
2019-03-15T12:25:22.947Z,5.60
2019-03-15T12:27:49.452Z,4.83
2019-03-15T12:30:16.273Z,2.23
2019-03-15T12:32:42.858Z,2.87
2019-03-15T12:35:11.344Z,3.40
2019-03-15T12:37:37.975Z,3.33
2019-03-15T12:40:06.294Z,3.33
2019-03-15T12:42:32.880Z,4.40
2019-03-15T12:44:59.568Z,3.97
2019-03-15T12:47:26.092Z,2.90
2019-03-15T12:49:52.719Z,3.97
2019-03-15T12:52:20.672Z,2.53
2019-03-15T12:54:47.625Z,9.17
2019-03-15T12:57:14.225Z,2.60
2019-03-15T12:59:40.822Z,2.00
2019-03-15T13:02:07.691Z,6.13
2019-03-15T13:04:34.173Z,2.73
2019-03-15T13:07:00.758Z,2.20
2019-03-15T13:09:27.340Z,3.83
2019-03-15T13:11:53.834Z,4.03
2019-03-15T13:14:20.419Z,2.27
2019-03-15T13:16:47.016Z,3.00
2019-03-15T13:19:13.621Z,3.20
2019-03-15T13:21:40.187Z,3.73
2019-03-15T13:24:06.710Z,6.10
2019-03-15T13:26:33.281Z,4.00
2019-03-15T13:28:59.809Z,4.07
2019-03-15T13:31:26.397Z,2.60
2019-03-15T13:33:52.984Z,3.17
2019-03-15T13:36:19.592Z,4.53
2019-03-15T13:38:46.209Z,5.83
2019-03-15T13:41:12.799Z,3.63
2019-03-15T13:43:39.405Z,2.40
2019-03-15T13:46:06.031Z,2.70
2019-03-15T13:48:32.613Z,2.87
2019-03-15T13:50:59.267Z,4.70
2019-03-15T13:53:25.841Z,3.00
2019-03-15T13:55:52.440Z,2.10
2019-03-15T13:58:19.024Z,1.97
2019-03-15T14:00:45.537Z,2.73
2019-03-15T14:03:12.184Z,1.97
2019-03-15T14:05:38.653Z,3.57
2019-03-15T14:08:11.863Z,2.20
2019-03-15T14:10:33.661Z,2.33
2019-03-15T14:13:00.236Z,3.97
2019-03-15T14:15:26.860Z,4.53
2019-03-15T14:17:53.444Z,1.57
2019-03-15T14:20:19.924Z,1.50
2019-03-15T14:22:46.647Z,1.77
2019-03-15T14:25:20.933Z,1.37
2019-03-15T14:27:47.426Z,1.20
2019-03-15T14:30:14.416Z,3.00
2019-03-15T14:32:41.110Z,4.50
2019-03-15T14:35:08.512Z,2.67
2019-03-15T14:37:35.203Z,3.37
2019-03-15T14:40:01.825Z,3.03
2019-03-15T14:42:28.579Z,4.00
2019-03-15T14:44:55.215Z,4.20
2019-03-15T14:47:21.844Z,5.97
2019-03-15T14:49:48.434Z,3.03
2019-03-15T14:52:15.005Z,3.40
2019-03-15T14:54:42.404Z,2.40
2019-03-15T14:57:09.090Z,1.93
2019-03-15T14:59:35.589Z,2.77
2019-03-15T15:02:02.666Z,2.30
2019-03-15T15:04:29.324Z,2.83
2019-03-15T15:06:55.862Z,3.13
2019-03-15T15:09:22.413Z,10.87
2019-03-15T15:11:49.015Z,8.10
2019-03-15T15:14:15.629Z,3.87
2019-03-15T15:16:42.492Z,3.57
2019-03-15T15:19:09.001Z,4.13
2019-03-15T15:21:35.557Z,3.37
2019-03-15T15:24:02.084Z,4.97
2019-03-15T15:26:28.673Z,4.10
2019-03-15T15:28:55.252Z,5.07
2019-03-15T15:31:21.863Z,4.70
2019-03-15T15:33:48.458Z,5.70
2019-03-15T15:36:15.052Z,4.23
2019-03-15T15:38:41.572Z,3.83
2019-03-15T15:41:08.153Z,5.63
2019-03-15T15:43:34.780Z,3.17
2019-03-15T15:46:01.382Z,5.23
2019-03-15T15:48:27.972Z,5.07
2019-03-15T15:50:54.593Z,4.30
2019-03-15T15:53:21.177Z,3.83
2019-03-15T15:55:47.697Z,6.77
2019-03-15T15:58:18.196Z,4.10
2019-03-15T16:00:42.572Z,7.97
2019-03-15T16:03:09.173Z,6.03
2019-03-15T16:05:35.808Z,4.30
2019-03-15T16:08:02.380Z,6.03
2019-03-15T16:10:28.977Z,6.87
2019-03-15T16:12:55.572Z,9.87
2019-03-15T16:15:22.190Z,8.03
2019-03-15T16:17:48.787Z,8.20
2019-03-15T16:20:15.376Z,10.20
2019-03-15T16:22:41.979Z,7.93
2019-03-15T16:25:09.250Z,11.13
2019-03-15T16:27:35.961Z,6.20
2019-03-15T16:30:04.367Z,11.73
2019-03-15T16:32:30.956Z,7.50
2019-03-15T16:34:57.460Z,4.50
2019-03-15T16:37:24.062Z,3.97
2019-03-15T16:39:50.644Z,4.77
2019-03-15T16:42:17.328Z,4.23
2019-03-15T16:44:44.121Z,5.40
2019-03-15T16:47:10.733Z,9.33
2019-03-15T16:49:37.327Z,5.40
2019-03-15T16:52:03.910Z,5.73
2019-03-15T16:54:30.533Z,7.10
2019-03-15T16:56:57.121Z,3.93
2019-03-15T16:59:23.621Z,9.23
2019-03-15T17:01:50.245Z,5.40
2019-03-15T17:04:16.833Z,6.50
2019-03-15T17:06:43.443Z,4.90
2019-03-15T17:09:10.057Z,10.57
2019-03-15T17:11:36.610Z,12.33
2019-03-15T17:14:03.230Z,8.03
2019-03-15T17:16:29.817Z,7.20
2019-03-15T17:18:56.425Z,8.37
2019-03-15T17:21:22.935Z,6.63
2019-03-15T17:23:49.541Z,5.97
2019-03-15T17:26:16.151Z,7.63
2019-03-15T17:28:42.644Z,4.97
2019-03-15T17:31:10.395Z,5.70
2019-03-15T17:33:37.365Z,5.70
2019-03-15T17:36:04.041Z,3.87
2019-03-15T17:38:30.541Z,7.47
2019-03-15T17:40:57.039Z,4.53
2019-03-15T17:43:23.624Z,9.00
2019-03-15T17:45:50.241Z,3.43
2019-03-15T17:48:16.842Z,2.63
2019-03-15T17:50:43.656Z,5.67
2019-03-15T17:53:10.218Z,5.90
2019-03-15T17:55:36.797Z,6.00
2019-03-15T17:58:03.407Z,2.20
2019-03-15T18:00:39.800Z,1.97
2019-03-15T18:03:20.016Z,2.77
2019-03-15T18:05:35.065Z,2.67
2019-03-15T18:08:01.644Z,2.90
2019-03-15T18:10:28.276Z,2.73
2019-03-15T18:12:54.910Z,2.27
2019-03-15T18:15:21.621Z,3.07
2019-03-15T18:17:48.302Z,3.77
2019-03-15T18:20:15.009Z,3.77
2019-03-15T18:22:41.564Z,3.30
2019-03-15T18:25:09.145Z,3.20
2019-03-15T18:27:35.759Z,3.97
2019-03-15T18:30:03.796Z,1.20
2019-03-15T18:32:30.450Z,1.80
2019-03-15T18:34:57.090Z,2.03
2019-03-15T18:37:23.704Z,1.60
2019-03-15T18:39:50.500Z,2.30
2019-03-15T18:42:17.122Z,2.23
2019-03-15T18:44:43.770Z,2.50
2019-03-15T18:47:10.544Z,3.43
2019-03-15T18:49:37.240Z,3.37
2019-03-15T18:52:03.820Z,4.23
2019-03-15T18:54:30.324Z,3.57
2019-03-15T18:56:56.913Z,3.40
2019-03-15T18:59:23.437Z,3.63
2019-03-15T19:01:50.048Z,3.97
2019-03-15T19:04:16.637Z,3.70
2019-03-15T19:06:43.225Z,2.97
2019-03-15T19:09:10.608Z,1.70
2019-03-15T19:11:37.213Z,6.10
2019-03-15T19:14:03.687Z,6.00
2019-03-15T19:16:30.141Z,3.37
2019-03-15T19:18:56.851Z,4.13
2019-03-15T19:21:23.560Z,4.00
2019-03-15T19:23:50.183Z,4.83
2019-03-15T19:26:16.764Z,3.63
2019-03-15T19:28:43.374Z,3.27
2019-03-15T19:31:09.972Z,10.20
2019-03-15T19:33:36.461Z,7.77
2019-03-15T19:36:03.049Z,4.73
2019-03-15T19:38:29.668Z,6.40
2019-03-15T19:40:56.256Z,6.73
2019-03-15T19:43:22.890Z,6.17
2019-03-15T19:45:49.481Z,6.37
2019-03-15T19:48:16.076Z,7.60
2019-03-15T19:50:42.643Z,5.90
2019-03-15T19:53:09.247Z,8.53
2019-03-15T19:55:35.877Z,6.07
2019-03-15T19:58:02.456Z,4.93
2019-03-15T20:00:29.074Z,4.00
2019-03-15T20:02:55.700Z,7.03
2019-03-15T20:05:22.248Z,5.10
2019-03-15T20:07:48.967Z,5.43
2019-03-15T20:10:17.029Z,6.53
2019-03-15T20:12:44.350Z,4.57
2019-03-15T20:15:14.559Z,3.40
2019-03-15T20:17:41.071Z,3.50
2019-03-15T20:20:09.187Z,3.20
2019-03-15T20:22:35.773Z,2.70
2019-03-15T20:25:03.736Z,3.77
2019-03-15T20:27:30.268Z,2.73
2019-03-15T20:29:57.200Z,3.17
2019-03-15T20:32:23.715Z,4.00
2019-03-15T20:34:50.176Z,2.27
2019-03-15T20:37:16.664Z,1.50
2019-03-15T20:39:43.264Z,1.40
2019-03-15T20:42:10.113Z,1.80
2019-03-15T20:44:36.633Z,1.50
2019-03-15T20:47:03.242Z,1.93
2019-03-15T20:49:29.825Z,1.73
2019-03-15T20:51:56.340Z,1.53
2019-03-15T20:54:22.920Z,1.80
2019-03-15T20:56:49.529Z,2.27
2019-03-15T20:59:16.108Z,2.30
2019-03-15T21:01:42.693Z,1.63
2019-03-15T21:04:09.314Z,2.10
2019-03-15T21:06:35.893Z,1.50
2019-03-15T21:09:04.368Z,7.33
2019-03-15T21:11:30.868Z,2.33
2019-03-15T21:13:57.477Z,1.43
2019-03-15T21:16:24.058Z,2.17
2019-03-15T21:18:50.536Z,2.97
2019-03-15T21:21:17.102Z,2.30
2019-03-15T21:23:43.645Z,1.90
2019-03-15T21:26:10.243Z,2.13
2019-03-15T21:28:36.728Z,2.20
2019-03-15T21:31:03.342Z,2.70
2019-03-15T21:33:29.927Z,2.87
2019-03-15T21:35:56.534Z,3.17
2019-03-15T21:38:23.162Z,1.60
2019-03-15T21:40:49.720Z,1.43
2019-03-15T21:43:16.256Z,1.20
2019-03-15T21:45:42.880Z,1.17
2019-03-15T21:48:09.468Z,1.70
2019-03-15T21:50:35.956Z,1.27
2019-03-15T21:53:02.466Z,0.90
2019-03-15T21:55:29.035Z,1.30
2019-03-15T21:57:55.525Z,1.07
2019-03-15T22:00:22.124Z,2.57
2019-03-15T22:02:48.596Z,1.30
2019-03-15T22:05:15.080Z,1.60
2019-03-15T22:07:41.681Z,3.00
2019-03-15T22:10:11.945Z,1.50
2019-03-15T22:12:38.469Z,1.37
2019-03-15T22:15:07.468Z,1.80
2019-03-15T22:17:34.193Z,0.90
2019-03-15T22:20:00.868Z,3.67
2019-03-15T22:22:27.349Z,3.03
2019-03-15T22:24:53.952Z,0.93
2019-03-15T22:27:20.512Z,1.67
2019-03-15T22:29:53.560Z,3.00
2019-03-15T22:32:15.424Z,2.30
2019-03-15T22:34:42.001Z,1.27
2019-03-15T22:37:08.604Z,2.17
2019-03-15T22:39:35.209Z,3.23
2019-03-15T22:42:01.809Z,1.80
2019-03-15T22:44:28.434Z,2.07
2019-03-15T22:46:55.020Z,2.10
2019-03-15T22:49:21.637Z,2.63
2019-03-15T22:51:48.205Z,1.53
2019-03-15T22:54:14.788Z,3.90
2019-03-15T22:56:41.386Z,1.47
2019-03-15T22:59:07.984Z,1.50
2019-03-15T23:01:34.472Z,1.23
2019-03-15T23:04:01.196Z,1.40
2019-03-15T23:06:27.813Z,1.83
2019-03-15T23:08:54.436Z,5.00
2019-03-15T23:11:20.976Z,3.63
2019-03-15T23:13:47.645Z,5.13
2019-03-15T23:16:14.129Z,2.67
2019-03-15T23:18:40.737Z,2.27
2019-03-15T23:21:07.338Z,1.70
2019-03-15T23:23:33.914Z,1.93
2019-03-15T23:26:00.433Z,1.83
2019-03-15T23:28:27.009Z,2.20
2019-03-15T23:30:53.613Z,2.10
2019-03-15T23:33:20.205Z,1.90
2019-03-15T23:35:53.794Z,1.30
2019-03-15T23:38:15.233Z,2.77
2019-03-15T23:40:41.817Z,1.70
2019-03-15T23:43:08.408Z,2.73
2019-03-15T23:45:34.985Z,1.60
2019-03-15T23:48:01.488Z,1.43
2019-03-15T23:50:28.060Z,1.97
2019-03-15T23:52:54.555Z,1.93
2019-03-15T23:55:21.045Z,1.90
2019-03-15T23:57:47.665Z,1.43
